Time;durP1;ratioP1;P1;durP2;ratioP2;P2;SDS_P1;SDS_P2;PMS_P1;PMS_P2;Temp;Humidity;BMP_temperature;BMP_pressure;BME280_temperature;BME280_humidity;BME280_pressure;Samples;Min_cycle;Max_cycle;Signal;HPM_P1;HPM_P2
2021/10/12 00:01:56;;;;;;;11.73;5.75;;;;;;;10.75;79.68;102454.31;5080032;28;20047;-81
2021/10/12 00:04:23;;;;;;;15.20;6.32;;;;;;;10.75;79.62;102452.34;5085864;28;20047;-80
2021/10/12 00:06:49;;;;;;;16.50;7.90;;;;;;;10.77;79.84;102446.50;5083689;28;20032;-81
2021/10/12 00:09:16;;;;;;;13.70;6.20;;;;;;;10.77;79.82;102446.50;5079207;28;20097;-81
2021/10/12 00:11:43;;;;;;;22.58;7.53;;;;;;;10.73;79.79;102451.00;5083422;28;20050;-82
2021/10/12 00:14:10;;;;;;;16.20;6.93;;;;;;;10.72;79.76;102449.38;5085167;28;20046;-81
2021/10/12 00:16:36;;;;;;;16.40;7.28;;;;;;;10.71;79.51;102458.81;5084919;28;20032;-81
2021/10/12 00:19:03;;;;;;;13.43;6.97;;;;;;;10.73;79.59;102440.75;5083784;28;20389;-81
2021/10/12 00:21:30;;;;;;;14.93;6.43;;;;;;;10.73;79.68;102439.91;5081476;28;20122;-81
2021/10/12 00:23:57;;;;;;;16.25;6.57;;;;;;;10.72;79.58;102449.38;5083126;28;20051;-81
2021/10/12 00:26:24;;;;;;;16.25;6.53;;;;;;;10.69;79.78;102449.97;5080094;28;20036;-81
2021/10/12 00:28:51;;;;;;;19.48;6.88;;;;;;;10.64;79.79;102453.66;5085315;28;20040;-81
2021/10/12 00:31:17;;;;;;;21.17;7.82;;;;;;;10.63;80.09;102445.66;5087532;28;20048;-81
2021/10/12 00:33:44;;;;;;;20.50;6.90;;;;;;;10.60;80.27;102441.53;5083369;28;20040;-81
2021/10/12 00:36:11;;;;;;;13.75;6.25;;;;;;;10.61;80.06;102434.06;5084413;28;20032;-82
2021/10/12 00:38:38;;;;;;;17.17;6.80;;;;;;;10.61;79.94;102443.19;5085354;28;20040;-81
2021/10/12 00:41:08;;;;;;;14.88;6.93;;;;;;;10.58;80.11;102443.78;5086605;28;20036;-82
2021/10/12 00:43:35;;;;;;;16.73;6.25;;;;;;;10.56;79.91;102436.91;5083451;28;20052;-81
2021/10/12 00:46:03;;;;;;;20.48;7.03;;;;;;;10.52;79.89;102438.63;5081769;28;20070;-81
2021/10/12 00:48:30;;;;;;;21.63;7.53;;;;;;;10.52;79.96;102438.63;5083386;28;20079;-81
2021/10/12 00:50:57;;;;;;;18.40;7.80;;;;;;;10.48;79.87;102440.38;5082572;28;20033;-81
2021/10/12 00:53:24;;;;;;;14.68;8.77;;;;;;;10.43;80.00;102438.53;5083301;28;20048;-81
2021/10/12 00:55:51;;;;;;;24.00;7.53;;;;;;;10.40;80.07;102437.16;5083926;28;20135;-81
2021/10/12 00:58:18;;;;;;;20.58;7.35;;;;;;;10.36;80.24;102436.13;5083214;28;20036;-81
2021/10/12 01:00:45;;;;;;;21.20;7.10;;;;;;;10.37;80.34;102432.25;5084072;28;20039;-82
2021/10/12 01:03:12;;;;;;;17.00;6.70;;;;;;;10.38;80.27;102433.88;5083094;28;20055;-81
2021/10/12 01:05:40;;;;;;;18.55;6.80;;;;;;;10.35;80.43;102420.63;5088333;28;20032;-82
2021/10/12 01:08:06;;;;;;;25.27;6.95;;;;;;;10.34;80.41;102438.41;5083575;28;20066;-81
2021/10/12 01:10:33;;;;;;;15.07;7.03;;;;;;;10.25;80.79;102423.59;5082981;28;20128;-81
2021/10/12 01:13:02;;;;;;;14.82;6.28;;;;;;;10.20;81.04;102426.44;5084855;28;20836;-81
2021/10/12 01:15:32;;;;;;;15.10;6.65;;;;;;;10.20;81.10;102431.16;5083066;28;20495;-81
2021/10/12 01:17:59;;;;;;;15.40;7.05;;;;;;;10.19;81.38;102419.25;5084960;28;20069;-81
2021/10/12 01:20:27;;;;;;;16.95;5.75;;;;;;;10.18;81.33;102422.34;5087192;28;20151;-81
2021/10/12 01:22:54;;;;;;;25.60;7.20;;;;;;;10.17;81.14;102418.75;5085844;28;20128;-81
2021/10/12 01:25:21;;;;;;;15.27;5.68;;;;;;;10.20;81.67;102415.38;5088141;28;20488;-81
2021/10/12 01:27:48;;;;;;;16.15;6.57;;;;;;;10.20;81.21;102426.44;5087155;28;20432;-80
2021/10/12 01:30:15;;;;;;;17.80;5.50;;;;;;;10.17;81.56;102429.81;5085236;28;20548;-81
2021/10/12 01:32:44;;;;;;;11.32;5.88;;;;;;;10.15;81.70;102418.22;5086621;28;20051;-80
2021/10/12 01:35:13;;;;;;;16.95;5.32;;;;;;;10.15;81.84;102407.16;5097517;28;20040;-81
2021/10/12 01:37:41;;;;;;;14.13;5.90;;;;;;;10.17;81.88;102421.50;5068842;28;20377;-81
2021/10/12 01:40:10;;;;;;;16.05;5.70;;;;;;;10.14;82.11;102411.03;5085676;28;20468;-81
2021/10/12 01:42:38;;;;;;;20.33;5.63;;;;;;;10.17;82.11;102420.69;5087158;28;20064;-80
2021/10/12 01:45:07;;;;;;;29.13;6.95;;;;;;;10.20;82.08;102409.00;5086115;28;20377;-81
2021/10/12 01:47:34;;;;;;;13.02;5.55;;;;;;;10.21;81.98;102405.94;5086301;28;20040;-81
2021/10/12 01:50:03;;;;;;;13.25;5.68;;;;;;;10.15;82.25;102407.16;5084423;28;20032;-81
2021/10/12 01:52:29;;;;;;;15.00;5.50;;;;;;;10.16;82.29;102400.50;5087039;28;20040;-81
2021/10/12 01:54:56;;;;;;;15.38;6.40;;;;;;;10.19;82.27;102408.19;5086685;28;20044;-81
2021/10/12 01:57:23;;;;;;;14.93;4.50;;;;;;;10.23;82.10;102408.41;5085634;28;20362;-81
2021/10/12 01:59:50;;;;;;;14.85;4.93;;;;;;;10.27;81.88;102415.78;5087561;28;20039;-82
2021/10/12 02:02:16;;;;;;;16.85;6.57;;;;;;;10.27;82.05;102401.16;5087766;28;20048;-81
2021/10/12 02:04:43;;;;;;;13.70;5.68;;;;;;;10.29;82.11;102396.97;5084812;28;20426;-81
2021/10/12 02:07:10;;;;;;;15.40;5.28;;;;;;;10.29;81.89;102396.97;5086226;28;20051;-82
2021/10/12 02:09:37;;;;;;;15.98;5.90;;;;;;;10.28;82.08;102394.47;5087476;28;20050;-80
2021/10/12 02:12:04;;;;;;;16.13;5.32;;;;;;;10.28;82.21;102373.16;5086463;28;20050;-81
2021/10/12 02:14:31;;;;;;;23.60;6.90;;;;;;;10.28;82.04;102377.88;5085424;28;20404;-79
2021/10/12 02:16:58;;;;;;;12.50;4.85;;;;;;;10.26;82.27;102380.94;5087545;28;20078;-81
2021/10/12 02:19:25;;;;;;;13.95;5.30;;;;;;;10.27;82.21;102382.56;5087712;28;20403;-80
2021/10/12 02:21:52;;;;;;;12.05;5.70;;;;;;;10.27;82.22;102388.13;5084469;28;20082;-82
2021/10/12 02:24:18;;;;;;;9.70;5.38;;;;;;;10.26;81.96;102385.66;5085256;28;20072;-81
2021/10/12 02:26:45;;;;;;;17.50;5.80;;;;;;;10.23;82.24;102381.56;5085583;28;20043;-81
2021/10/12 02:29:12;;;;;;;17.92;5.13;;;;;;;10.22;82.06;102373.53;5085275;28;20119;-82
2021/10/12 02:31:39;;;;;;;11.30;4.57;;;;;;;10.19;82.12;102372.19;5097343;28;20079;-80
2021/10/12 02:34:06;;;;;;;12.02;5.00;;;;;;;10.18;82.28;102359.50;5086401;28;20040;-81
2021/10/12 02:36:32;;;;;;;17.98;5.38;;;;;;;10.18;82.42;102370.56;5086840;28;20044;-81
2021/10/12 02:38:59;;;;;;;14.85;5.05;;;;;;;10.19;82.40;102357.56;5086616;28;20055;-81
2021/10/12 02:41:26;;;;;;;16.20;4.80;;;;;;;10.20;82.40;102360.00;5069552;28;20411;-81
2021/10/12 02:43:53;;;;;;;14.60;4.97;;;;;;;10.23;82.20;102364.94;5087416;28;20052;-81
2021/10/12 02:46:19;;;;;;;13.27;5.50;;;;;;;10.24;82.50;102361.06;5088119;28;20058;-81
2021/10/12 02:48:48;;;;;;;19.27;6.03;;;;;;;10.27;82.49;102368.75;5078383;28;20124;-81
2021/10/12 02:51:15;;;;;;;15.07;4.78;;;;;;;10.32;82.42;102376.97;5084952;28;20142;-81
2021/10/12 02:53:42;;;;;;;18.88;5.80;;;;;;;10.35;82.51;102370.00;5085239;28;20046;-81
2021/10/12 02:56:17;;;;;;;15.43;5.32;;;;;;;10.38;82.40;102372.97;5083591;28;20047;-82
2021/10/12 02:58:43;;;;;;;10.30;5.30;;;;;;;10.39;82.22;102359.97;5086517;28;20048;-82
2021/10/12 03:01:10;;;;;;;18.25;5.05;;;;;;;10.39;82.65;102365.50;5084654;28;20044;-81
2021/10/12 03:03:40;;;;;;;13.25;5.28;;;;;;;10.42;82.45;102356.59;5086596;28;20085;-81
2021/10/12 03:06:07;;;;;;;13.98;5.25;;;;;;;10.42;82.51;102353.81;5085893;28;20036;-81
2021/10/12 03:08:33;;;;;;;12.63;4.47;;;;;;;10.43;82.34;102358.25;5084067;28;20407;-79
2021/10/12 03:11:00;;;;;;;17.30;5.40;;;;;;;10.42;82.33;102355.75;5085744;28;20669;-81
2021/10/12 03:13:27;;;;;;;12.27;4.55;;;;;;;10.38;82.62;102350.81;5083869;28;20036;-80
2021/10/12 03:15:54;;;;;;;11.63;5.13;;;;;;;10.34;82.81;102344.28;5084019;28;20040;-80
2021/10/12 03:18:21;;;;;;;13.70;4.10;;;;;;;10.35;82.59;102356.97;5084737;28;20067;-81
2021/10/12 03:20:48;;;;;;;17.13;5.00;;;;;;;10.30;82.71;102339.63;5085495;28;20087;-81
2021/10/12 03:23:14;;;;;;;9.32;4.95;;;;;;;10.26;82.59;102344.97;5083838;28;20044;-81
2021/10/12 03:25:41;;;;;;;10.02;4.28;;;;;;;10.25;82.77;102336.94;5085451;28;20040;-81
2021/10/12 03:28:08;;;;;;;9.15;3.85;;;;;;;10.24;82.57;102322.31;5086002;28;20036;-81
2021/10/12 03:30:34;;;;;;;12.93;4.90;;;;;;;10.22;82.60;102321.78;5085507;28;20044;-81
2021/10/12 03:33:03;;;;;;;13.57;4.38;;;;;;;10.21;82.80;102311.84;5085855;28;20040;-81
2021/10/12 03:35:36;;;;;;;11.85;4.53;;;;;;;10.20;82.68;102315.72;5084909;28;20035;-81
2021/10/12 03:38:03;;;;;;;11.45;5.28;;;;;;;10.20;82.69;102321.25;5084196;28;20082;-80
2021/10/12 03:40:30;;;;;;;13.88;5.63;;;;;;;10.22;82.82;102329.25;5083397;28;20036;-81
2021/10/12 03:42:57;;;;;;;12.25;4.72;;;;;;;10.25;82.84;102323.94;5091464;28;20053;-81
2021/10/12 03:45:24;;;;;;;15.20;7.07;;;;;;;10.23;82.75;102333.69;5084593;28;20040;-80
2021/10/12 03:47:50;;;;;;;11.48;5.10;;;;;;;10.23;82.99;102323.44;5084573;28;20052;-80
2021/10/12 03:50:17;;;;;;;18.67;5.20;;;;;;;10.25;83.03;102312.03;5085235;28;20044;-81
2021/10/12 03:52:43;;;;;;;13.77;4.28;;;;;;;10.22;82.95;102302.41;5086403;28;20123;-81
2021/10/12 03:55:10;;;;;;;21.63;7.72;;;;;;;10.22;82.88;102319.00;5084019;28;20131;-81
2021/10/12 03:57:38;;;;;;;16.98;4.72;;;;;;;10.21;82.88;102316.56;5065685;28;20048;-81
2021/10/12 04:00:07;;;;;;;15.77;5.07;;;;;;;10.18;82.99;102320.75;5082512;28;20054;-81
2021/10/12 04:02:34;;;;;;;15.75;5.15;;;;;;;10.15;83.10;102318.59;5084872;28;20050;-80
2021/10/12 04:05:01;;;;;;;11.27;4.57;;;;;;;10.14;82.96;102321.69;5086332;28;20036;-79
2021/10/12 04:07:28;;;;;;;15.80;6.05;;;;;;;10.11;83.01;102325.00;5083231;28;20050;-82
2021/10/12 04:09:55;;;;;;;13.20;5.45;;;;;;;10.06;83.16;102314.84;5067907;28;20044;-82
2021/10/12 04:12:22;;;;;;;12.05;4.32;;;;;;;10.03;83.17;102314.63;5084482;28;20039;-80
2021/10/12 04:14:49;;;;;;;17.23;6.10;;;;;;;10.02;83.23;102313.81;5081725;28;20131;-81
2021/10/12 04:17:15;;;;;;;18.38;6.40;;;;;;;10.01;83.35;102323.22;5084819;28;20040;-81
2021/10/12 04:19:42;;;;;;;11.45;4.82;;;;;;;9.99;83.46;102319.94;5083344;28;20040;-81
2021/10/12 04:22:09;;;;;;;5.70;4.10;;;;;;;9.97;83.45;102316.69;5086293;28;20044;-81
2021/10/12 04:24:37;;;;;;;10.82;4.05;;;;;;;9.95;83.45;102313.41;5083157;28;20407;-80
2021/10/12 04:27:04;;;;;;;9.02;4.63;;;;;;;9.94;83.58;102300.66;5085094;28;20097;-80
2021/10/12 04:29:31;;;;;;;10.93;4.75;;;;;;;9.95;83.67;102302.31;5081848;28;20044;-81
2021/10/12 04:32:00;;;;;;;7.63;3.58;;;;;;;9.95;83.88;102302.31;5092826;28;20058;-80
2021/10/12 04:34:27;;;;;;;10.98;4.82;;;;;;;9.95;83.75;102302.31;5082919;28;20044;-82
2021/10/12 04:36:55;;;;;;;12.32;4.03;;;;;;;9.96;83.86;102298.41;5084290;28;20051;-81
2021/10/12 04:39:22;;;;;;;13.48;4.60;;;;;;;9.99;84.01;102297.00;5081119;28;20495;-80
2021/10/12 04:41:52;;;;;;;10.23;3.88;;;;;;;10.01;84.05;102298.31;5085424;28;20403;-82
2021/10/12 04:44:18;;;;;;;10.15;4.60;;;;;;;10.03;84.13;102312.69;5077400;28;20055;-81
2021/10/12 04:46:45;;;;;;;14.20;3.85;;;;;;;10.03;83.97;102307.16;5084341;28;20044;-80
2021/10/12 04:49:13;;;;;;;9.95;3.72;;;;;;;10.05;84.25;102301.31;5083696;28;20048;-81
2021/10/12 04:51:40;;;;;;;13.80;4.13;;;;;;;10.08;84.15;102298.78;5084314;28;20076;-81
2021/10/12 04:54:07;;;;;;;16.45;4.10;;;;;;;10.12;84.20;102293.44;5086399;28;20267;-81
2021/10/12 04:56:34;;;;;;;9.98;4.63;;;;;;;10.12;84.29;102305.34;5088745;28;20048;-81
2021/10/12 04:59:00;;;;;;;12.73;4.43;;;;;;;10.14;84.16;102305.88;5089062;28;20055;-81
2021/10/12 05:01:27;;;;;;;8.30;5.10;;;;;;;10.15;84.23;102296.44;5069599;28;20048;-81
2021/10/12 05:03:54;;;;;;;12.80;3.95;;;;;;;10.16;84.13;102287.03;5087321;28;20040;-81
2021/10/12 05:06:21;;;;;;;13.43;3.88;;;;;;;10.16;84.19;102311.94;5087581;28;20131;-80
2021/10/12 05:08:48;;;;;;;7.50;4.25;;;;;;;10.13;84.15;102312.56;5087809;28;20123;-81
2021/10/12 05:11:14;;;;;;;12.15;3.85;;;;;;;10.14;84.15;102316.13;5087763;28;20652;-81
2021/10/12 05:13:41;;;;;;;15.45;5.63;;;;;;;10.14;84.07;102316.94;5088011;28;20071;-81
2021/10/12 05:16:13;;;;;;;17.40;5.55;;;;;;;10.13;84.19;102304.25;5085051;28;20470;-81
2021/10/12 05:18:42;;;;;;;14.18;4.30;;;;;;;10.12;84.27;102305.34;5065887;28;20403;-81
2021/10/12 05:21:09;;;;;;;10.93;4.97;;;;;;;10.11;84.21;102306.44;5087793;28;20044;-80
2021/10/12 05:23:36;;;;;;;10.00;3.50;;;;;;;10.13;84.24;102308.94;5086025;28;20044;-81
2021/10/12 05:26:04;;;;;;;8.38;3.35;;;;;;;10.12;84.34;102302.59;5087960;28;20044;-81
2021/10/12 05:28:35;;;;;;;9.82;3.45;;;;;;;10.10;84.23;102309.53;5086282;28;20585;-81
2021/10/12 05:31:02;;;;;;;12.93;5.05;;;;;;;10.08;84.23;102329.22;5087526;28;20075;-82
2021/10/12 05:33:29;;;;;;;11.10;3.40;;;;;;;10.06;84.33;102319.56;5086942;28;20506;-81
2021/10/12 05:35:56;;;;;;;10.30;3.97;;;;;;;10.05;84.23;102324.28;5085773;28;20058;-81
2021/10/12 05:38:23;;;;;;;12.32;4.50;;;;;;;10.05;84.10;102318.75;5085265;28;20043;-81
2021/10/12 05:40:50;;;;;;;8.50;3.30;;;;;;;10.03;84.18;102312.69;5070417;28;20060;-81
2021/10/12 05:43:16;;;;;;;10.40;3.33;;;;;;;10.02;84.37;102311.03;5085879;28;20063;-82
2021/10/12 05:45:43;;;;;;;7.05;3.85;;;;;;;10.01;84.17;102314.94;5087971;28;20050;-81
2021/10/12 05:48:11;;;;;;;11.77;4.45;;;;;;;9.99;84.01;102311.66;5088030;28;20045;-81
2021/10/12 05:50:43;;;;;;;12.00;4.35;;;;;;;9.99;84.17;102308.06;5087399;28;20048;-79
2021/10/12 05:53:26;;;;;;;14.18;4.57;;;;;;;9.98;84.24;102320.25;5085934;28;20051;-82
2021/10/12 05:58:31;;;;;;;10.63;3.38;;;;;;;9.96;84.42;102320.56;5085204;28;20036;-80
2021/10/12 06:00:58;;;;;;;9.73;3.78;;;;;;;9.97;84.33;102313.06;5086802;28;20090;-80
2021/10/12 06:03:26;;;;;;;14.13;4.18;;;;;;;9.99;84.30;102308.88;5082569;28;20082;-80
2021/10/12 06:05:54;;;;;;;14.45;6.15;;;;;;;9.99;84.30;102306.13;5086083;28;20044;-79
2021/10/12 06:08:21;;;;;;;11.00;3.67;;;;;;;9.98;84.43;102298.94;5087071;28;20128;-82
2021/10/12 06:10:48;;;;;;;13.85;3.97;;;;;;;9.96;84.37;102305.88;5086072;28;20522;-81
2021/10/12 06:13:15;;;;;;;10.80;4.05;;;;;;;9.94;84.47;102297.91;5085401;28;20046;-81
2021/10/12 06:15:43;;;;;;;8.15;4.15;;;;;;;9.92;84.34;102294.63;5086464;28;20066;-81
2021/10/12 06:18:10;;;;;;;35.13;6.47;;;;;;;9.91;84.32;102284.69;5084438;28;20044;-81
2021/10/12 06:20:37;;;;;;;16.23;4.25;;;;;;;9.90;84.77;102296.84;5085846;28;20113;-80
2021/10/12 06:23:04;;;;;;;8.38;3.38;;;;;;;9.90;84.55;102299.63;5086829;28;20038;-81
2021/10/12 06:25:32;;;;;;;17.27;4.30;;;;;;;9.88;84.68;102301.88;5087375;28;20113;-81
2021/10/12 06:27:58;;;;;;;11.07;4.47;;;;;;;9.88;84.70;102299.09;5086935;28;20109;-80
2021/10/12 06:30:25;;;;;;;11.05;3.75;;;;;;;9.93;84.87;102301.78;5085814;28;20044;-81
2021/10/12 06:32:52;;;;;;;13.02;3.53;;;;;;;9.99;84.85;102297.00;5084369;28;20412;-81
2021/10/12 06:35:23;;;;;;;11.38;3.53;;;;;;;10.01;84.66;102290.03;5085046;28;20044;-81
2021/10/12 06:37:50;;;;;;;10.75;4.90;;;;;;;10.05;84.83;102290.25;5085108;28;20044;-81
2021/10/12 06:40:17;;;;;;;12.98;4.20;;;;;;;10.06;84.93;102303.75;5083663;28;20040;-81
2021/10/12 06:42:44;;;;;;;14.07;3.67;;;;;;;10.08;84.73;102301.53;5085766;28;20063;-81
2021/10/12 06:45:16;;;;;;;8.75;4.45;;;;;;;10.10;84.92;102301.22;5068389;28;20493;-80
2021/10/12 06:47:43;;;;;;;;;;;;;;;10.07;84.96;102288.81;5086741;28;20040;-81
2021/10/12 06:50:10;;;;;;;7.65;3.15;;;;;;;10.09;84.69;102302.34;5081126;28;19939;-81
2021/10/12 06:52:37;;;;;;;15.70;5.95;;;;;;;10.08;84.93;102303.47;5092616;28;20067;-81
2021/10/12 06:55:05;;;;;;;7.85;3.00;;;;;;;10.11;85.05;102305.66;5086279;28;20044;-80
2021/10/12 06:57:32;;;;;;;9.80;3.13;;;;;;;10.14;84.95;102297.56;5084946;28;20040;-81
2021/10/12 06:59:58;;;;;;;12.23;3.42;;;;;;;10.19;85.26;102291.94;5084770;28;20442;-81
2021/10/12 07:02:25;;;;;;;6.80;2.92;;;;;;;10.23;85.33;102297.69;5065990;28;20147;-82
2021/10/12 07:04:52;;;;;;;12.25;3.83;;;;;;;10.28;85.36;102300.38;5087186;28;20546;-81
2021/10/12 07:07:19;;;;;;;14.68;4.57;;;;;;;10.34;85.21;102304.69;5084593;28;20133;-79
2021/10/12 07:09:45;;;;;;;15.18;3.67;;;;;;;10.36;85.12;102302.41;5086325;28;20036;-81
2021/10/12 07:12:17;;;;;;;8.70;3.87;;;;;;;10.38;85.13;102301.00;5085523;28;20507;-79
2021/10/12 07:14:44;;;;;;;8.27;3.20;;;;;;;10.40;85.10;102303.47;5085806;28;20115;-78
2021/10/12 07:17:10;;;;;;;11.43;3.40;;;;;;;10.42;85.21;102283.78;5084222;28;20044;-78
2021/10/12 07:19:37;;;;;;;14.15;4.05;;;;;;;10.40;85.19;102276.56;5084070;28;20048;-79
2021/10/12 07:22:04;;;;;;;6.88;3.08;;;;;;;10.42;85.13;102294.84;5084398;28;20480;-78
2021/10/12 07:24:30;;;;;;;10.63;3.55;;;;;;;10.42;85.13;102294.84;5085934;28;20036;-79
2021/10/12 07:26:57;;;;;;;11.93;3.33;;;;;;;10.42;85.25;102297.63;5083904;28;20134;-78
2021/10/12 07:29:45;;;;;;;13.75;4.15;;;;;;;10.41;85.38;102318.94;5082972;28;20046;-78
2021/10/12 07:32:14;;;;;;;14.05;3.13;;;;;;;10.42;85.45;102312.28;5068400;28;20081;-79
2021/10/12 07:34:41;;;;;;;10.27;2.83;;;;;;;10.47;85.17;102309.41;5086411;28;20048;-78
2021/10/12 07:37:09;;;;;;;4.25;2.95;;;;;;;10.49;85.63;102309.91;5083333;28;20047;-78
2021/10/12 07:39:36;;;;;;;9.77;3.00;;;;;;;10.53;85.37;102322.03;5084080;28;20048;-78
2021/10/12 07:42:06;;;;;;;8.40;3.15;;;;;;;10.56;85.12;102320.59;5085645;28;20087;-78
2021/10/12 07:44:33;;;;;;;9.07;2.75;;;;;;;10.62;85.36;102316.59;5086745;28;20050;-78
2021/10/12 07:46:59;;;;;;;8.32;3.40;;;;;;;10.66;85.34;102303.78;5087261;28;20407;-78
2021/10/12 07:49:32;;;;;;;8.18;2.95;;;;;;;10.74;85.02;102300.28;5086579;28;20048;-78
2021/10/12 07:52:07;;;;;;;3.97;2.50;;;;;;;10.78;85.26;102304.06;5085014;28;20059;-79
2021/10/12 07:54:50;;;;;;;9.95;3.92;;;;;;;10.80;85.07;102302.63;5077082;28;20040;-80
2021/10/12 07:57:18;;;;;;;8.35;2.67;;;;;;;10.86;85.10;102306.13;5064926;28;20075;-82
2021/10/12 07:59:45;;;;;;;6.85;2.70;;;;;;;10.92;85.15;102304.88;5085650;28;20490;-78
2021/10/12 08:02:12;;;;;;;9.10;2.78;;;;;;;10.98;85.13;102303.66;5087040;28;20443;-79
2021/10/12 08:04:43;;;;;;;5.80;3.08;;;;;;;11.04;85.07;102304.38;5084486;28;20047;-79
2021/10/12 08:07:10;;;;;;;5.25;2.75;;;;;;;11.10;84.89;102320.56;5086361;28;20784;-82
2021/10/12 08:09:37;;;;;;;12.27;3.30;;;;;;;11.15;84.88;102317.69;5080995;28;20545;-81
2021/10/12 08:12:05;;;;;;;8.40;2.70;;;;;;;11.20;84.86;102319.53;5084908;28;20050;-81
2021/10/12 08:14:38;;;;;;;6.03;2.97;;;;;;;11.24;84.88;102307.50;5085243;28;20047;-81
2021/10/12 08:17:05;;;;;;;8.43;2.72;;;;;;;11.29;84.77;102314.88;5084816;28;20044;-82
2021/10/12 08:19:32;;;;;;;5.90;2.53;;;;;;;11.32;84.62;102309.53;5085862;28;20055;-81
2021/10/12 08:21:59;;;;;;;13.20;3.72;;;;;;;11.34;84.56;102304.50;5086034;28;20051;-82
2021/10/12 08:24:30;;;;;;;9.45;2.85;;;;;;;11.36;84.49;102316.09;5080217;28;20055;-82
2021/10/12 08:26:56;;;;;;;9.38;3.40;;;;;;;11.40;84.55;102297.72;5085289;28;20036;-82
2021/10/12 08:29:23;;;;;;;6.53;2.17;;;;;;;11.41;84.36;102296.56;5088966;28;20050;-81
2021/10/12 08:31:50;;;;;;;8.88;2.53;;;;;;;11.46;84.29;102301.19;5089070;28;20131;-83
2021/10/12 08:34:17;;;;;;;8.73;2.53;;;;;;;11.54;84.29;102298.47;5088466;28;20051;-82
2021/10/12 08:36:44;;;;;;;8.23;2.30;;;;;;;11.64;84.44;102311.28;5089021;28;20102;-82
2021/10/12 08:39:11;;;;;;;8.15;2.50;;;;;;;11.70;84.02;102301.75;5089008;28;20044;-83
2021/10/12 08:41:51;;;;;;;11.18;2.88;;;;;;;11.80;84.11;102295.13;5087922;28;20068;-81
2021/10/12 08:44:18;;;;;;;7.32;2.15;;;;;;;11.87;84.15;102289.94;5087025;28;20051;-82
2021/10/12 08:46:45;;;;;;;7.93;2.20;;;;;;;11.93;83.87;102285.91;5090429;28;20051;-82
2021/10/12 08:49:12;;;;;;;7.82;2.45;;;;;;;11.96;83.79;102285.25;5088471;28;20040;-83
2021/10/12 08:51:43;;;;;;;7.30;2.20;;;;;;;11.94;83.43;102282.00;5101919;28;20079;-82
2021/10/12 08:54:14;;;;;;;5.45;2.03;;;;;;;11.91;83.22;102282.63;5103681;28;20129;-82
2021/10/12 08:56:41;;;;;;;7.50;3.10;;;;;;;11.88;83.56;102297.97;5086306;28;20042;-82
2021/10/12 08:59:07;;;;;;;6.78;2.08;;;;;;;11.83;83.27;102297.25;5087703;28;20052;-83
2021/10/12 09:01:54;;;;;;;7.32;2.17;;;;;;;11.76;83.35;102299.63;5090033;28;20048;-82
2021/10/12 09:04:21;;;;;;;8.23;2.47;;;;;;;11.75;83.38;102300.78;5089280;28;20047;-82
2021/10/12 09:06:53;;;;;;;7.63;2.10;;;;;;;11.79;83.57;102297.06;5085777;28;20495;-83
2021/10/12 09:09:34;;;;;;;9.43;4.32;;;;;;;11.89;83.38;102298.75;5086569;28;20044;-84
2021/10/12 09:12:02;;;;;;;6.82;2.58;;;;;;;12.05;83.45;102300.81;5087456;28;20044;-83
2021/10/12 09:14:29;;;;;;;3.00;1.70;;;;;;;12.21;83.33;102301.25;5089024;28;20377;-83
2021/10/12 09:17:05;;;;;;;12.30;2.80;;;;;;;12.32;83.14;102297.06;5088536;28;20066;-82
2021/10/12 09:19:35;;;;;;;3.58;1.95;;;;;;;12.41;83.16;102303.47;5087424;28;20036;-83
2021/10/12 09:22:08;;;;;;;5.90;1.83;;;;;;;12.50;82.79;102307.09;5089309;28;20054;-83
2021/10/12 09:24:39;;;;;;;6.40;2.00;;;;;;;12.67;82.75;102306.38;5086933;28;20496;-83
2021/10/12 09:27:10;;;;;;;8.90;2.20;;;;;;;12.79;82.37;102304.59;5086723;28;20046;-83
2021/10/12 09:29:47;;;;;;;3.22;2.03;;;;;;;12.94;82.44;102310.84;5087802;28;20511;-83
2021/10/12 09:32:15;;;;;;;7.93;2.47;;;;;;;13.02;82.26;102304.50;5098958;28;20066;-82
2021/10/12 09:34:44;;;;;;;5.55;1.70;;;;;;;13.09;82.01;102314.03;5086712;28;20117;-82
2021/10/12 09:37:16;;;;;;;5.03;1.75;;;;;;;13.19;81.83;102307.34;5087068;28;20040;-82
2021/10/12 09:39:45;;;;;;;;;;;;;;;13.27;80.67;102315.69;5086133;28;20047;-82
2021/10/12 09:42:14;;;;;;;8.07;1.85;;;;;;;13.32;81.33;102311.94;5085727;28;19994;-82
2021/10/12 09:44:57;;;;;;;6.03;2.22;;;;;;;13.35;80.99;102300.16;5086173;28;20044;-83
2021/10/12 09:47:25;;;;;;;4.25;1.90;;;;;;;13.33;81.09;102296.88;5084561;28;20364;-80
2021/10/12 09:50:09;;;;;;;11.70;2.17;;;;;;;13.32;80.58;102298.84;5085582;28;20059;-80
2021/10/12 09:52:38;;;;;;;14.98;2.95;;;;;;;13.31;80.85;102305.56;5096911;28;20531;-80
2021/10/12 09:55:06;;;;;;;5.30;1.92;;;;;;;13.26;80.56;102302.13;5091539;28;20074;-80
2021/10/12 09:57:34;;;;;;;4.25;1.60;;;;;;;13.21;80.68;102305.06;5087222;28;20038;-80
2021/10/12 10:00:01;;;;;;;4.40;1.88;;;;;;;13.20;80.57;102308.97;5089420;28;20047;-80
2021/10/12 10:02:28;;;;;;;6.80;1.70;;;;;;;13.21;80.17;102313.41;5088969;28;20045;-80
2021/10/12 10:04:56;;;;;;;8.48;1.77;;;;;;;13.19;80.29;102307.34;5090088;28;20047;-80
2021/10/12 10:07:41;;;;;;;6.63;1.52;;;;;;;13.14;80.26;102310.28;5089718;28;20054;-80
2021/10/12 10:10:10;;;;;;;6.50;1.67;;;;;;;13.19;80.32;102312.88;5087090;28;20066;-80
2021/10/12 10:12:36;;;;;;;8.50;1.92;;;;;;;13.27;80.20;102318.47;5086112;28;20115;-80
2021/10/12 10:15:04;;;;;;;8.98;1.83;;;;;;;13.34;80.15;102312.44;5087861;28;20047;-79
2021/10/12 10:17:32;;;;;;;6.85;1.67;;;;;;;13.45;80.09;102319.31;5086954;28;20040;-80
2021/10/12 10:20:03;;;;;;;4.53;1.40;;;;;;;13.48;79.73;102324.22;5084920;28;20048;-79
2021/10/12 10:22:44;;;;;;;4.68;1.35;;;;;;;13.52;79.14;102311.31;5086031;28;20067;-80
2021/10/12 10:25:26;;;;;;;3.25;1.60;;;;;;;13.52;79.82;102316.88;5085484;28;20044;-79
2021/10/12 10:27:55;;;;;;;6.70;2.63;;;;;;;13.59;79.80;102300.50;5100375;28;20074;-79
2021/10/12 10:30:32;;;;;;;2.90;1.35;;;;;;;13.76;79.65;102308.03;5087805;28;20097;-80
2021/10/12 10:33:04;;;;;;;6.93;1.70;;;;;;;13.89;79.19;102309.81;5082230;28;20113;-80
2021/10/12 10:35:47;;;;;;;2.67;1.08;;;;;;;13.95;78.84;102309.28;5084514;28;20048;-80
2021/10/12 10:38:20;;;;;;;4.45;1.42;;;;;;;14.09;78.89;102306.31;5088601;28;20053;-80
2021/10/12 10:40:48;;;;;;;9.93;1.38;;;;;;;14.27;78.94;102315.47;5087039;28;20458;-80
2021/10/12 10:43:15;;;;;;;3.65;1.42;;;;;;;14.39;78.71;102302.50;5085986;28;20062;-80
2021/10/12 10:45:49;;;;;;;10.00;2.10;;;;;;;14.54;78.18;102301.13;5089628;28;20044;-80
2021/10/12 10:48:20;;;;;;;5.10;1.42;;;;;;;14.55;77.70;102294.41;5085860;28;20032;-80
2021/10/12 10:51:21;;;;;;;4.18;1.58;;;;;;;14.50;77.33;102302.97;5086486;28;20048;-80
2021/10/12 10:53:48;;;;;;;5.53;1.47;;;;;;;14.51;77.72;102307.34;5087188;28;20802;-79
2021/10/12 10:56:16;;;;;;;2.38;1.75;;;;;;;14.58;77.48;102311.28;5087465;28;20530;-80
2021/10/12 10:58:43;;;;;;;6.85;2.10;;;;;;;14.70;77.06;102315.31;5085345;28;20051;-80
2021/10/12 11:01:34;;;;;;;5.10;1.15;;;;;;;14.75;76.53;102315.94;5083813;28;20048;-79
2021/10/12 11:04:01;;;;;;;4.40;1.73;;;;;;;14.74;76.79;102324.66;5086195;28;20044;-80
2021/10/12 11:06:33;;;;;;;13.27;2.80;;;;;;;14.69;76.93;102322.88;5085538;28;20126;-80
2021/10/12 11:09:02;;;;;;;2.42;1.35;;;;;;;14.64;76.65;102314.69;5086649;28;20490;-80
2021/10/12 11:11:36;;;;;;;4.90;1.00;;;;;;;14.61;76.09;102320.97;5068549;28;20053;-82
2021/10/12 11:14:03;;;;;;;2.92;1.42;;;;;;;14.52;76.35;102317.38;5086393;28;20059;-80
2021/10/12 11:16:36;;;;;;;5.07;1.02;;;;;;;14.46;76.07;102324.28;5084683;28;20046;-80
2021/10/12 11:19:04;;;;;;;4.13;1.00;;;;;;;14.42;76.29;102326.09;5084155;28;20036;-80
2021/10/12 11:21:31;;;;;;;5.32;1.30;;;;;;;14.35;76.45;102318.25;5084773;28;20567;-80
2021/10/12 11:24:02;;;;;;;4.28;1.20;;;;;;;14.29;76.16;102316.78;5087131;28;20048;-80
2021/10/12 11:26:30;;;;;;;4.10;2.03;;;;;;;14.22;76.20;102305.31;5085722;28;20036;-80
2021/10/12 11:29:00;;;;;;;6.75;1.05;;;;;;;14.20;76.27;102309.56;5083586;28;20043;-80
2021/10/12 11:31:29;;;;;;;5.13;1.33;;;;;;;14.18;76.16;102309.09;5086206;28;20040;-80